createdAt,value
2019-02-28T00:01:29.337Z,46.93
2019-02-28T00:04:18.456Z,42.23
2019-02-28T00:07:08.147Z,45.80
2019-02-28T00:09:58.233Z,44.60
2019-02-28T00:12:48.163Z,47.60
2019-02-28T00:15:37.429Z,43.20
2019-02-28T00:18:26.749Z,45.00
2019-02-28T00:21:15.374Z,40.97
2019-02-28T00:23:45.840Z,41.63
2019-02-28T00:26:35.058Z,39.70
2019-02-28T00:29:24.790Z,43.50
2019-02-28T00:32:13.712Z,43.83
2019-02-28T00:34:45.527Z,52.60
2019-02-28T00:37:35.813Z,49.80
2019-02-28T00:40:25.070Z,47.93
2019-02-28T00:43:14.449Z,42.00
2019-02-28T00:46:03.990Z,50.60
2019-02-28T00:48:53.937Z,48.60
2019-02-28T00:51:43.639Z,45.80
2019-02-28T00:54:32.840Z,43.10
2019-02-28T00:57:23.615Z,57.43
2019-02-28T01:00:13.709Z,42.13
2019-02-28T01:03:03.280Z,45.40
2019-02-28T01:05:51.966Z,40.33
2019-02-28T01:08:41.109Z,45.53
2019-02-28T01:11:29.824Z,42.87
2019-02-28T01:14:18.564Z,45.60
2019-02-28T01:17:08.243Z,46.93
2019-02-28T01:19:57.163Z,42.73
2019-02-28T01:22:46.435Z,47.00
2019-02-28T01:25:37.219Z,45.57
2019-02-28T01:28:26.931Z,52.43
2019-02-28T01:31:17.083Z,44.60
2019-02-28T01:34:05.958Z,45.60
2019-02-28T01:36:55.108Z,45.60
2019-02-28T01:39:43.831Z,49.30
2019-02-28T01:42:32.765Z,48.27
2019-02-28T01:45:22.160Z,50.10
2019-02-28T01:48:11.811Z,50.77
2019-02-28T01:51:01.726Z,53.40
2019-02-28T01:53:53.634Z,47.70
2019-02-28T01:56:36.973Z,54.27
2019-02-28T01:59:25.516Z,49.70
2019-02-28T02:02:14.550Z,62.40
2019-02-28T02:05:03.411Z,54.03
2019-02-28T02:07:52.256Z,51.57
2019-02-28T02:10:41.435Z,49.43
2019-02-28T02:13:30.662Z,50.90
2019-02-28T02:16:20.032Z,52.03
2019-02-28T02:18:50.299Z,56.13
2019-02-28T02:21:39.708Z,53.70
2019-02-28T02:24:28.958Z,55.70
2019-02-28T02:27:19.488Z,56.63
2019-02-28T02:30:15.306Z,58.10
2019-02-28T02:33:02.724Z,58.80
2019-02-28T02:35:51.587Z,67.10
2019-02-28T02:38:41.750Z,64.50
2019-02-28T02:41:33.425Z,67.07
2019-02-28T02:44:20.829Z,71.50
2019-02-28T02:47:09.585Z,74.70
2019-02-28T02:49:58.293Z,68.97
2019-02-28T02:52:47.353Z,71.27
2019-02-28T02:55:36.523Z,78.47
2019-02-28T02:58:27.783Z,76.00
2019-02-28T03:01:15.297Z,68.43
2019-02-28T03:04:04.027Z,76.10
2019-02-28T03:06:52.869Z,73.93
2019-02-28T03:09:43.506Z,78.30
2019-02-28T03:12:32.988Z,81.03
2019-02-28T03:15:27.048Z,82.33
2019-02-28T03:18:12.676Z,81.23
2019-02-28T03:21:02.143Z,80.00
2019-02-28T03:23:50.705Z,71.70
2019-02-28T03:26:41.982Z,82.97
2019-02-28T03:29:30.101Z,72.07
2019-02-28T03:32:19.548Z,87.80
2019-02-28T03:35:09.262Z,72.93
2019-02-28T03:37:58.373Z,79.80
2019-02-28T03:40:47.569Z,88.47
2019-02-28T03:43:42.739Z,76.50
2019-02-28T03:46:27.971Z,74.70
2019-02-28T03:49:16.856Z,78.30
2019-02-28T03:52:06.841Z,78.77
2019-02-28T03:54:56.702Z,73.13
2019-02-28T03:57:45.863Z,68.43
2019-02-28T04:00:35.002Z,74.17
2019-02-28T04:03:25.206Z,75.03
2019-02-28T04:06:14.272Z,75.23
2019-02-28T04:08:54.887Z,64.70
2019-02-28T04:11:43.816Z,66.47
2019-02-28T04:14:34.376Z,70.83
2019-02-28T04:17:29.907Z,77.10
2019-02-28T04:20:13.790Z,73.37
2019-02-28T04:23:02.768Z,73.17
2019-02-28T04:25:51.805Z,73.77
2019-02-28T04:28:40.959Z,71.57
2019-02-28T04:31:29.904Z,73.90
2019-02-28T04:34:19.268Z,80.63
2019-02-28T04:37:09.530Z,68.40
2019-02-28T04:39:58.616Z,79.03
2019-02-28T04:42:47.156Z,89.83
2019-02-28T04:45:17.795Z,79.80
2019-02-28T04:48:06.712Z,85.33
2019-02-28T04:50:55.699Z,89.47
2019-02-28T04:53:44.149Z,89.20
2019-02-28T04:56:33.156Z,79.33
2019-02-28T04:59:21.728Z,85.77
2019-02-28T05:02:10.438Z,90.03
2019-02-28T05:04:59.482Z,80.30
2019-02-28T05:07:47.927Z,92.67
2019-02-28T05:10:37.396Z,94.67
2019-02-28T05:13:26.219Z,90.53
2019-02-28T05:16:15.655Z,89.40
2019-02-28T05:19:04.189Z,89.53
2019-02-28T05:21:54.278Z,87.73
2019-02-28T05:24:43.915Z,90.27
2019-02-28T05:27:35.523Z,88.87
2019-02-28T05:30:24.239Z,98.90
2019-02-28T05:33:13.106Z,102.60
2019-02-28T05:36:04.174Z,98.20
2019-02-28T05:38:53.629Z,99.73
2019-02-28T05:41:43.308Z,111.90
2019-02-28T05:44:32.613Z,103.90
2019-02-28T05:47:21.100Z,100.80
2019-02-28T05:50:15.589Z,98.20
2019-02-28T05:53:02.985Z,106.03
2019-02-28T05:55:51.849Z,95.67
2019-02-28T05:58:40.903Z,96.40
2019-02-28T06:01:29.713Z,97.10
2019-02-28T06:04:19.177Z,105.07
2019-02-28T06:07:09.422Z,106.63
2019-02-28T06:09:58.745Z,104.80
2019-02-28T06:12:47.656Z,99.60
2019-02-28T06:15:37.355Z,103.60
2019-02-28T06:18:32.614Z,99.20
2019-02-28T06:21:18.578Z,99.33
2019-02-28T06:24:08.513Z,94.83
2019-02-28T06:26:57.434Z,97.03
2019-02-28T06:29:46.061Z,97.10
2019-02-28T06:32:35.470Z,104.80
2019-02-28T06:35:24.799Z,101.80
2019-02-28T06:38:16.193Z,111.20
2019-02-28T06:41:07.605Z,95.47
2019-02-28T06:43:57.287Z,108.17
2019-02-28T06:46:46.835Z,107.00
2019-02-28T06:49:40.928Z,110.03
2019-02-28T06:52:27.036Z,122.60
2019-02-28T06:55:20.250Z,103.60
2019-02-28T06:58:09.315Z,99.33
2019-02-28T07:00:58.314Z,99.43
2019-02-28T07:03:53.303Z,92.70
2019-02-28T07:06:37.457Z,98.50
2019-02-28T07:09:26.511Z,99.50
2019-02-28T07:12:15.466Z,89.73
2019-02-28T07:15:05.289Z,88.63
2019-02-28T07:17:54.113Z,96.37
2019-02-28T07:20:43.195Z,81.93
2019-02-28T07:23:32.451Z,93.93
2019-02-28T07:26:21.632Z,90.57
2019-02-28T07:29:12.037Z,91.03
2019-02-28T07:32:01.456Z,88.53
2019-02-28T07:34:51.706Z,85.37
2019-02-28T07:37:41.057Z,84.57
2019-02-28T07:40:29.992Z,90.97
2019-02-28T07:43:18.866Z,95.00
2019-02-28T07:46:08.875Z,91.27
2019-02-28T07:49:00.877Z,81.60
2019-02-28T07:51:49.257Z,89.67
2019-02-28T07:54:37.838Z,83.27
2019-02-28T07:57:27.028Z,89.57
2019-02-28T08:00:18.652Z,81.60
2019-02-28T08:03:11.291Z,79.27
2019-02-28T08:06:04.335Z,78.07
2019-02-28T08:08:48.950Z,80.50
2019-02-28T08:11:37.905Z,79.17
2019-02-28T08:14:27.423Z,79.17
2019-02-28T08:17:16.662Z,83.20
2019-02-28T08:20:06.383Z,70.90
2019-02-28T08:22:57.677Z,81.83
2019-02-28T08:25:46.153Z,83.63
2019-02-28T08:28:36.740Z,96.57
2019-02-28T08:31:28.301Z,90.40
2019-02-28T08:34:16.318Z,77.10
2019-02-28T08:37:05.150Z,81.20
2019-02-28T08:39:53.912Z,75.13
2019-02-28T08:42:42.890Z,83.43
2019-02-28T08:45:33.383Z,75.53
2019-02-28T08:48:22.378Z,69.13
2019-02-28T08:51:11.785Z,70.43
2019-02-28T08:54:01.345Z,78.57
2019-02-28T08:56:50.918Z,78.27
2019-02-28T08:59:40.499Z,79.93
2019-02-28T09:02:30.394Z,70.47
2019-02-28T09:05:25.646Z,78.13
2019-02-28T09:08:10.298Z,72.20
2019-02-28T09:10:59.802Z,73.63
2019-02-28T09:13:49.041Z,75.03
2019-02-28T09:16:39.700Z,77.40
2019-02-28T09:19:28.637Z,70.33
2019-02-28T09:22:17.996Z,87.53
2019-02-28T09:25:08.878Z,75.70
2019-02-28T09:27:58.262Z,76.83
2019-02-28T09:30:48.165Z,72.20
2019-02-28T09:33:37.431Z,78.33
2019-02-28T09:36:27.002Z,76.60
2019-02-28T09:39:16.339Z,84.43
2019-02-28T09:42:06.023Z,73.93
2019-02-28T09:44:55.173Z,81.23
2019-02-28T09:47:44.513Z,71.80
2019-02-28T09:50:33.633Z,74.67
2019-02-28T09:53:22.727Z,75.93
2019-02-28T09:56:12.073Z,81.50
2019-02-28T09:59:03.236Z,68.93
2019-02-28T10:02:00.910Z,71.00
2019-02-28T10:04:42.453Z,76.50
2019-02-28T10:07:31.579Z,74.50
2019-02-28T10:10:22.058Z,72.70
2019-02-28T10:13:14.500Z,66.70
2019-02-28T10:16:02.515Z,69.93
2019-02-28T10:18:51.538Z,69.07
2019-02-28T10:21:41.145Z,61.77
2019-02-28T10:24:31.443Z,67.33
2019-02-28T10:27:26.749Z,67.73
2019-02-28T10:30:17.031Z,63.40
2019-02-28T10:33:06.692Z,69.37
2019-02-28T10:35:55.774Z,62.13
2019-02-28T10:38:44.739Z,74.93
2019-02-28T10:41:33.993Z,60.47
2019-02-28T10:44:23.233Z,64.93
2019-02-28T10:47:12.647Z,65.57
2019-02-28T10:50:01.873Z,65.47
2019-02-28T10:52:50.968Z,61.23
2019-02-28T10:55:40.361Z,76.10
2019-02-28T10:58:29.635Z,63.47
2019-02-28T11:01:19.578Z,61.53
2019-02-28T11:04:08.348Z,62.47
2019-02-28T11:06:59.317Z,64.73
2019-02-28T11:09:48.808Z,68.50
2019-02-28T11:12:39.416Z,76.13
2019-02-28T11:15:28.793Z,74.47
2019-02-28T11:18:18.084Z,73.67
2019-02-28T11:21:08.212Z,72.67
2019-02-28T11:23:57.339Z,79.57
2019-02-28T11:26:46.727Z,74.70
2019-02-28T11:29:36.377Z,79.53
2019-02-28T11:32:26.402Z,80.10
2019-02-28T11:35:20.096Z,81.73
2019-02-28T11:38:08.210Z,79.93
2019-02-28T11:40:57.747Z,85.97
2019-02-28T11:43:47.835Z,93.10
2019-02-28T11:46:36.973Z,82.93
2019-02-28T11:49:28.611Z,93.83
2019-02-28T11:52:17.387Z,89.40
2019-02-28T11:55:07.272Z,87.80
2019-02-28T11:57:56.484Z,90.13
2019-02-28T12:00:45.611Z,95.93
2019-02-28T12:03:35.658Z,94.53
2019-02-28T12:06:26.372Z,87.80
2019-02-28T12:09:16.249Z,101.53
2019-02-28T12:12:07.333Z,107.03
2019-02-28T12:15:02.380Z,92.60
2019-02-28T12:17:48.132Z,96.27
2019-02-28T12:20:37.636Z,89.17
2019-02-28T12:23:26.917Z,93.20
2019-02-28T12:26:17.742Z,84.37
2019-02-28T12:29:09.414Z,90.90
2019-02-28T12:31:56.928Z,83.83
2019-02-28T12:34:45.624Z,76.00
2019-02-28T12:37:35.253Z,74.80
2019-02-28T12:40:26.429Z,80.60
2019-02-28T12:43:15.590Z,77.77
2019-02-28T12:46:04.780Z,80.63
2019-02-28T12:48:53.483Z,73.80
2019-02-28T12:51:42.728Z,74.17
2019-02-28T12:54:33.415Z,69.03
2019-02-28T12:57:23.144Z,72.10
2019-02-28T13:00:16.117Z,71.93
2019-02-28T13:03:05.724Z,70.53
2019-02-28T13:05:55.234Z,88.80
2019-02-28T13:08:44.121Z,101.87
2019-02-28T13:11:35.836Z,113.07
2019-02-28T13:14:23.589Z,97.33
2019-02-28T13:17:12.857Z,111.40
2019-02-28T13:20:02.479Z,112.60
2019-02-28T13:22:51.953Z,116.00
2019-02-28T13:25:40.867Z,120.83
2019-02-28T13:28:29.847Z,103.80
2019-02-28T13:31:19.229Z,109.30
2019-02-28T13:34:07.999Z,107.40
2019-02-28T13:37:02.030Z,110.70
2019-02-28T13:39:48.223Z,103.40
2019-02-28T13:42:40.522Z,96.53
2019-02-28T13:45:27.824Z,105.80
2019-02-28T13:48:25.631Z,111.70
2019-02-28T13:51:08.763Z,109.73
2019-02-28T13:53:57.544Z,111.27
2019-02-28T13:56:47.130Z,110.33
2019-02-28T13:59:36.809Z,103.83
2019-02-28T14:02:26.241Z,94.50
2019-02-28T14:05:16.338Z,83.90
2019-02-28T14:08:09.827Z,86.60
2019-02-28T14:10:55.646Z,73.93
2019-02-28T14:13:45.489Z,91.17
2019-02-28T14:16:34.904Z,73.40
2019-02-28T14:19:24.581Z,69.23
2019-02-28T14:22:14.119Z,68.50
2019-02-28T14:25:06.160Z,67.87
2019-02-28T14:27:56.783Z,73.07
2019-02-28T14:30:44.791Z,73.67
2019-02-28T14:33:34.534Z,63.27
2019-02-28T14:36:23.518Z,63.60
2019-02-28T14:39:13.362Z,67.50
2019-02-28T14:42:03.080Z,73.37
2019-02-28T14:44:52.698Z,59.57
2019-02-28T14:47:42.059Z,65.53
2019-02-28T14:50:30.595Z,66.67
2019-02-28T14:53:20.388Z,62.90
2019-02-28T14:56:09.628Z,60.33
2019-02-28T14:58:58.891Z,53.60
2019-02-28T15:01:49.581Z,55.67
2019-02-28T15:04:20.252Z,56.13
2019-02-28T15:06:50.602Z,59.23
2019-02-28T15:09:20.782Z,59.80
2019-02-28T15:11:51.197Z,46.80
2019-02-28T15:14:21.443Z,44.03
2019-02-28T15:16:51.736Z,47.70
2019-02-28T15:19:24.445Z,44.00
2019-02-28T15:21:53.962Z,44.93
2019-02-28T15:24:24.338Z,43.67
2019-02-28T15:26:54.708Z,49.57
2019-02-28T15:29:26.836Z,44.00
2019-02-28T15:31:56.706Z,39.53
2019-02-28T15:34:27.004Z,37.90
2019-02-28T15:36:59.422Z,34.13
2019-02-28T15:39:29.773Z,39.97
2019-02-28T15:42:01.054Z,34.30
2019-02-28T15:44:31.637Z,33.53
2019-02-28T15:47:02.032Z,41.67
2019-02-28T15:49:32.203Z,34.80
2019-02-28T15:52:05.099Z,29.27
2019-02-28T15:54:34.815Z,33.27
2019-02-28T15:57:05.302Z,35.67
2019-02-28T15:59:35.516Z,34.77
2019-02-28T16:02:06.389Z,31.20
2019-02-28T16:04:37.852Z,33.50
2019-02-28T16:07:08.272Z,31.83
2019-02-28T16:09:38.607Z,25.63
2019-02-28T16:12:09.350Z,30.53
2019-02-28T16:14:39.624Z,31.23
2019-02-28T16:17:10.413Z,22.50
2019-02-28T16:19:41.259Z,24.40
2019-02-28T16:22:11.500Z,27.83
2019-02-28T16:24:41.937Z,27.40
2019-02-28T16:27:12.514Z,22.73
2019-02-28T16:29:43.031Z,22.60
2019-02-28T16:32:15.118Z,24.23
2019-02-28T16:34:46.129Z,23.93
2019-02-28T16:37:16.684Z,23.03
2019-02-28T16:39:49.175Z,21.63
2019-02-28T16:42:19.172Z,20.00
2019-02-28T16:44:49.774Z,27.43
2019-02-28T16:47:21.531Z,25.80
2019-02-28T16:49:52.296Z,19.47
2019-02-28T16:52:23.014Z,21.10
2019-02-28T16:54:56.068Z,20.43
2019-02-28T16:57:25.499Z,22.30
2019-02-28T16:59:56.125Z,21.03
2019-02-28T17:02:29.281Z,25.20
2019-02-28T17:04:59.680Z,20.43
2019-02-28T17:07:29.802Z,20.90
2019-02-28T17:10:01.625Z,25.43
2019-02-28T17:12:53.868Z,21.47
2019-02-28T17:15:55.890Z,20.37
2019-02-28T17:18:45.357Z,19.80
2019-02-28T17:21:34.794Z,20.67
2019-02-28T17:24:24.354Z,21.40
2019-02-28T17:27:31.235Z,22.43
2019-02-28T17:30:37.038Z,22.13
2019-02-28T17:33:26.716Z,24.93
2019-02-28T17:36:15.851Z,21.77
2019-02-28T17:39:07.067Z,19.33
2019-02-28T17:41:56.280Z,20.20
2019-02-28T17:45:22.152Z,17.67
2019-02-28T17:48:58.592Z,28.87
2019-02-28T17:52:03.637Z,20.53
2019-02-28T17:55:19.423Z,28.63
2019-02-28T17:58:13.953Z,22.53
2019-02-28T18:01:30.895Z,17.20
2019-02-28T18:04:42.007Z,22.80
2019-02-28T18:08:01.993Z,22.73
2019-02-28T18:11:41.383Z,20.93
2019-02-28T18:15:08.893Z,27.57
2019-02-28T18:18:18.374Z,28.20
2019-02-28T18:21:37.427Z,26.47
2019-02-28T18:24:59.938Z,31.93
2019-02-28T18:28:14.465Z,32.23
2019-02-28T18:31:12.010Z,30.50
2019-02-28T18:34:07.143Z,26.13
2019-02-28T18:36:56.081Z,27.23
2019-02-28T18:39:48.285Z,32.60
2019-02-28T18:42:35.944Z,29.70
2019-02-28T18:45:25.724Z,29.27
2019-02-28T18:47:56.319Z,25.83
2019-02-28T18:50:26.566Z,21.07
2019-02-28T18:52:56.992Z,29.00
2019-02-28T18:55:34.662Z,28.20
2019-02-28T18:58:01.362Z,29.37
2019-02-28T19:00:31.568Z,19.00
2019-02-28T19:03:01.931Z,18.90
2019-02-28T19:05:32.066Z,17.20
2019-02-28T19:08:02.311Z,20.90
2019-02-28T19:10:33.078Z,17.00
2019-02-28T19:13:03.323Z,18.90
2019-02-28T19:15:33.616Z,14.83
2019-02-28T19:18:03.949Z,19.30
2019-02-28T19:20:34.259Z,17.20
2019-02-28T19:23:13.562Z,16.20
2019-02-28T19:25:43.754Z,21.20
2019-02-28T19:28:14.287Z,28.43
2019-02-28T19:30:44.441Z,22.80
2019-02-28T19:33:14.775Z,22.73
2019-02-28T19:35:45.183Z,16.10
2019-02-28T19:38:15.378Z,25.93
2019-02-28T19:40:45.721Z,21.70
2019-02-28T19:43:15.972Z,18.70
2019-02-28T19:45:46.741Z,22.50
2019-02-28T19:48:16.944Z,29.97
2019-02-28T19:50:47.148Z,33.80
2019-02-28T19:53:17.438Z,30.63
2019-02-28T19:55:47.627Z,32.30
2019-02-28T19:58:17.941Z,26.07
2019-02-28T20:00:48.252Z,33.77
2019-02-28T20:03:18.463Z,37.93
2019-02-28T20:05:49.001Z,34.43
2019-02-28T20:08:19.243Z,39.77
2019-02-28T20:10:49.567Z,35.67
2019-02-28T20:13:38.967Z,34.73
2019-02-28T20:16:28.625Z,40.80
2019-02-28T20:19:18.210Z,34.90
2019-02-28T20:22:07.524Z,27.67
2019-02-28T20:24:57.012Z,26.90
2019-02-28T20:27:46.272Z,27.00
2019-02-28T20:30:36.029Z,20.77
2019-02-28T20:33:24.547Z,22.13
2019-02-28T20:36:15.560Z,19.90
2019-02-28T20:39:05.855Z,22.07
2019-02-28T20:41:55.166Z,23.00
2019-02-28T20:44:44.868Z,19.37
2019-02-28T20:47:34.223Z,23.93
2019-02-28T20:50:26.453Z,25.47
2019-02-28T20:53:15.979Z,25.70
2019-02-28T20:56:05.283Z,19.63
2019-02-28T20:58:54.289Z,24.53
2019-02-28T21:01:43.541Z,25.60
2019-02-28T21:04:32.286Z,24.43
2019-02-28T21:07:21.441Z,27.83
2019-02-28T21:09:52.352Z,29.50
2019-02-28T21:12:41.181Z,73.90
2019-02-28T21:15:30.726Z,66.53
2019-02-28T21:18:19.718Z,67.90
2019-02-28T21:21:08.713Z,54.50
2019-02-28T21:23:58.470Z,48.80
2019-02-28T21:26:47.817Z,61.13
2019-02-28T21:29:37.045Z,64.57
2019-02-28T21:32:26.631Z,67.90
2019-02-28T21:35:17.462Z,65.40
2019-02-28T21:38:07.058Z,74.37
2019-02-28T21:40:56.440Z,61.03
2019-02-28T21:43:45.379Z,58.80
2019-02-28T21:46:34.665Z,67.97
2019-02-28T21:49:23.388Z,52.40
2019-02-28T21:52:12.447Z,61.00
2019-02-28T21:55:01.764Z,57.80
2019-02-28T21:57:51.220Z,63.60
2019-02-28T22:00:42.567Z,69.57
2019-02-28T22:03:31.771Z,67.80
2019-02-28T22:06:22.572Z,65.97
2019-02-28T22:09:12.157Z,60.50
2019-02-28T22:11:42.448Z,54.23
2019-02-28T22:14:31.836Z,47.37
2019-02-28T22:17:20.746Z,47.07
2019-02-28T22:20:12.444Z,42.97
2019-02-28T22:23:01.336Z,44.13
2019-02-28T22:25:50.910Z,36.80
2019-02-28T22:28:40.137Z,40.53
2019-02-28T22:31:47.276Z,40.27
2019-02-28T22:34:55.872Z,44.87
2019-02-28T22:37:44.500Z,39.00
2019-02-28T22:40:33.283Z,34.83
2019-02-28T22:43:22.215Z,40.20
2019-02-28T22:46:11.714Z,36.50
2019-02-28T22:49:00.798Z,29.97
2019-02-28T22:51:49.864Z,24.87
2019-02-28T22:54:39.113Z,23.70
2019-02-28T22:57:28.101Z,21.97
2019-02-28T23:00:46.922Z,28.23
2019-02-28T23:03:36.434Z,21.30
2019-02-28T23:06:26.076Z,19.17
2019-02-28T23:09:15.787Z,15.30
2019-02-28T23:12:04.718Z,18.90
2019-02-28T23:14:53.743Z,19.57
2019-02-28T23:17:42.589Z,16.33
2019-02-28T23:20:32.230Z,17.23
2019-02-28T23:23:21.418Z,22.87
2019-02-28T23:26:12.371Z,19.33
2019-02-28T23:29:26.457Z,20.47
2019-02-28T23:32:31.789Z,18.93
2019-02-28T23:35:29.006Z,16.53
2019-02-28T23:38:18.232Z,18.80
2019-02-28T23:41:07.838Z,19.80
2019-02-28T23:43:57.296Z,19.50
2019-02-28T23:46:46.822Z,22.70
2019-02-28T23:49:35.409Z,19.67
2019-02-28T23:52:24.547Z,20.50
2019-02-28T23:55:14.188Z,21.03
2019-02-28T23:58:03.358Z,17.20
